Latest Weather Observations for Laverton

IDW60801

Issued at 4:33 pm WST Wednesday 24 August 2016 (issued every 30 minutes, with the page automatically refreshed every 10 minutes)

About weather observations | Map of weather stations | Latest weather observations for WA | Other Formats
Station Details ID: 012305 Name: LAVERTON AERO Lat: -28.61 Lon: 122.42 Height: 464.3 m
Data from the previous 72 hours. | See also: Recent months at Laverton
Date/Time
WST
Temp
°C
App
Temp
°C
Dew
Point
°C
Rel
Hum
%
Delta-T
°C
Wind Press
QNH
hPa
Press
MSL
hPa
Rain since
9am
mm
Dir  Spd
km/h
Gust
km/h
Spd
kts
Gust
kts
24/04:30pm 15.7 11.0 1.1 37 6.5 S 15 22 8 12 1021.2 1020.6 0.0
24/04:00pm 16.1 11.9 1.8 38 6.5 S 13 24 7 13 1020.8 1020.3 0.0
24/03:30pm 15.4 12.1 2.2 41 6.0 S 9 17 5 9 1020.7 1020.2 0.0
24/03:00pm 16.0 11.5 4.1 45 5.7 S 17 22 9 12 1020.6 1020.1 0.0
24/02:30pm 16.1 12.1 5.1 48 5.4 SSE 15 22 8 12 1020.7 1020.2 0.0
24/02:00pm 15.2 12.2 2.1 41 5.9 S 7 11 4 6 1020.7 1020.2 0.0
24/01:30pm 15.4 12.7 2.9 43 5.8 S 6 9 3 5 1020.9 1020.4 0.0
24/01:00pm 14.4 11.1 4.4 51 4.7 S 11 17 6 9 1021.4 1020.8 0.0
24/12:30pm 14.6 11.5 3.7 48 5.1 SE 9 15 5 8 1021.9 1021.4 0.0
24/12:00pm 14.0 11.2 5.1 55 4.3 SSE 9 15 5 8 1022.4 1021.9 0.0
24/11:30am 13.0 10.3 5.4 60 3.6 SSE 9 15 5 8 1022.8 1022.3 0.0
24/11:00am 12.3 9.7 5.9 65 3.1 SSE 9 15 5 8 1023.0 1022.5 0.0
24/10:30am 12.9 10.3 6.0 63 3.3 ESE 9 15 5 8 1023.1 1022.6 0.0
24/10:00am 11.1 7.8 6.6 74 2.2 ESE 13 17 7 9 1023.4 1022.8 0.0
24/09:30am 11.4 8.2 6.7 73 2.3 ESE 13 19 7 10 1023.5 1022.9 0.0
24/09:00am 10.1 6.3 7.5 84 1.3 SE 17 20 9 11 1023.4 1022.8 0.2
24/08:30am 9.3 6.9 8.5 95 0.4 SSE 11 15 6 8 1023.4 1022.8 0.2
24/08:00am 8.4 5.5 8.1 98 0.1 SE 13 19 7 10 1023.0 1022.5 0.2
24/07:30am 7.9 4.5 7.8 99 0.0 SSE 15 19 8 10 1022.8 1022.3 0.2
24/07:00am 7.6 4.6 7.5 99 0.0 SSE 13 17 7 9 1022.6 1022.1 0.2
24/06:30am 7.5 4.8 7.4 99 0.0 SSE 11 15 6 8 1022.4 1021.9 0.2
24/06:00am 7.3 4.6 7.2 99 0.0 SSE 11 15 6 8 1022.0 1021.5 0.0
24/05:30am 7.2 4.1 7.1 99 0.0 SE 13 20 7 11 1021.7 1021.1 0.0
24/05:00am 7.2 3.3 7.1 99 0.0 SSE 17 22 9 12 1021.5 1020.9 0.0
24/04:30am 7.2 4.1 7.1 99 0.0 SSE 13 17 7 9 1021.3 1020.7 0.0
24/04:00am 7.1 3.2 7.0 99 0.0 SSE 17 24 9 13 1020.8 1020.3 0.0
24/03:30am 7.1 2.8 7.0 99 0.0 S 19 22 10 12 1020.7 1020.2 0.0
24/03:00am 7.3 3.4 7.2 99 0.0 S 17 22 9 12 1020.6 1020.1 0.0
24/02:30am 7.4 3.5 7.3 99 0.0 S 17 24 9 13 1020.8 1020.3 0.0
24/02:00am 7.3 2.8 7.0 98 0.1 S 20 26 11 14 1020.7 1020.2 0.0
24/01:30am 7.8 3.6 7.5 98 0.1 SSE 19 26 10 14 1020.6 1020.1 0.0
24/01:00am 7.1 3.1 6.8 98 0.1 S 17 20 9 11 1020.9 1020.4 0.0
24/12:30am 5.7 2.6 5.4 98 0.1 SSW 11 15 6 8 1021.3 1020.7 0.0
24/12:00am 5.7 2.5 5.3 97 0.2 SSW 11 13 6 7 1021.3 1020.7 0.0
 
Date/Time
WST
Temp
°C
App
Temp
°C
Dew
Point
°C
Rel
Hum
%
Delta-T
°C
Wind Press
QNH
hPa
Press
MSL
hPa
Rain since
9am
mm
Dir  Spd
km/h
Gust
km/h
Spd
kts
Gust
kts
23/11:30pm 5.9 2.7 5.2 95 0.3 SSW 11 13 6 7 1021.3 1020.7 0.0
23/11:00pm 5.6 3.1 4.9 95 0.3 SSW 7 7 4 4 1021.3 1020.7 0.0
23/10:30pm 5.9 3.6 4.7 92 0.5 SSW 6 7 3 4 1021.3 1020.7 0.0
23/10:00pm 6.3 3.8 4.8 90 0.7 SSW 7 9 4 5 1021.4 1020.8 0.0
23/09:30pm 6.8 4.0 5.1 89 0.8 SSW 9 11 5 6 1021.3 1020.7 0.0
23/09:00pm 7.1 4.3 5.1 87 0.9 SSW 9 9 5 5 1021.4 1020.8 0.0
23/08:30pm 7.6 4.8 5.2 85 1.1 SSW 9 11 5 6 1021.3 1020.7 0.0
23/08:00pm 8.3 5.5 5.1 80 1.5 SSW 9 11 5 6 1020.8 1020.3 0.0
23/07:30pm 9.1 6.6 4.9 75 1.9 SSW 7 11 4 6 1020.7 1020.2 0.0
23/07:00pm 10.0 6.3 4.6 69 2.5 SSW 13 17 7 9 1020.3 1019.8 0.0
23/06:30pm 10.5 6.8 4.4 66 2.8 SSW 13 17 7 9 1020.0 1019.5 0.0
23/06:00pm 11.1 7.7 4.1 62 3.2 SSW 11 15 6 8 1019.7 1019.1 0.0
23/05:30pm 11.8 7.6 3.8 58 3.7 SSW 15 20 8 11 1019.4 1018.8 0.0
23/05:00pm 12.5 7.5 3.5 54 4.1 S 19 28 10 15 1019.0 1018.4 0.0
23/04:30pm 13.5 8.5 3.8 52 4.5 SSW 19 30 10 16 1018.6 1018.1 0.0
23/04:00pm 12.7 9.0 4.4 57 3.9 S 13 17 7 9 1018.6 1018.1 0.0
23/03:30pm 12.8 8.4 4.8 58 3.8 SSW 17 28 9 15 1018.6 1018.1 0.0
23/03:00pm 12.1 7.8 5.3 63 3.2 SSW 17 22 9 12 1018.6 1018.1 0.0
23/02:30pm 11.4 7.5 5.3 66 2.9 S 15 20 8 11 1018.8 1018.2 0.0
23/02:00pm 11.4 6.7 5.3 66 2.9 S 19 26 10 14 1018.8 1018.2 0.0
23/01:30pm 10.8 6.6 5.6 70 2.5 SSW 17 26 9 14 1018.8 1018.2 0.0
23/01:00pm 10.0 5.7 5.2 72 2.2 SSE 17 22 9 12 1018.9 1018.3 0.0
23/12:30pm 9.8 5.1 5.2 73 2.1 S 19 26 10 14 1019.2 1018.6 0.0
23/12:00pm 9.6 5.4 5.8 77 1.8 SSE 17 24 9 13 1019.5 1018.9 0.0
23/11:30am 8.6 3.8 4.8 77 1.7 S 19 26 10 14 1019.6 1019.0 0.0
23/11:00am 8.8 4.2 5.7 81 1.4 S 19 28 10 15 1019.9 1019.3 0.0
23/10:30am 7.8 2.5 5.1 83 1.2 S 22 32 12 17 1020.1 1019.6 0.0
23/10:00am 7.3 2.0 4.8 84 1.1 SSW 22 30 12 16 1020.2 1019.7 0.0
23/09:30am 7.1 2.1 4.8 85 1.0 S 20 28 11 15 1020.2 1019.7 0.0
23/09:00am 6.5 1.5 4.8 89 0.8 SSW 20 26 11 14 1020.1 1019.6 6.8
23/08:30am 6.3 1.9 4.9 91 0.6 SSW 17 24 9 13 1020.2 1019.7 6.8
23/08:00am 6.3 1.6 5.1 92 0.5 S 19 24 10 13 1020.0 1019.5 6.8
23/07:30am 6.2 1.2 4.5 89 0.8 S 20 28 11 15 1019.5 1018.9 6.8
23/07:00am 5.9 1.0 4.9 93 0.4 S 20 32 11 17 1019.4 1018.8 6.8
23/06:30am 6.1 0.7 4.6 90 0.7 S 22 30 12 16 1019.2 1018.6 6.8
23/06:00am 6.5 0.7 4.3 86 1.0 S 24 33 13 18 1019.0 1018.4 6.8
23/05:30am 6.4 1.5 5.0 91 0.6 S 20 28 11 15 1018.8 1018.2 6.8
23/05:00am 6.8 1.5 4.8 87 0.9 S 22 28 12 15 1018.4 1017.9 6.8
23/04:30am 6.8 2.0 4.8 87 0.9 S 19 26 10 14 1018.0 1017.4 6.8
23/04:00am 6.7 1.4 5.0 89 0.8 S 22 32 12 17 1017.8 1017.2 6.8
23/03:30am 6.8 0.3 4.8 87 0.9 S 28 39 15 21 1017.9 1017.3 6.8
23/03:00am 7.1 2.3 5.6 90 0.7 S 20 28 11 15 1017.7 1017.1 6.8
23/02:30am 7.5 0.7 5.0 84 1.1 S 30 39 16 21 1017.6 1017.0 6.8
23/02:00am 8.0 2.9 6.1 88 0.9 S 22 35 12 19 1017.6 1017.0 6.8
23/01:30am 8.1 3.1 6.4 89 0.8 S 22 35 12 19 1017.4 1016.8 6.8
23/01:00am 8.4 3.4 6.5 88 0.9 SSW 22 37 12 20 1017.4 1016.8 6.8
23/12:30am 8.0 4.9 7.4 96 0.3 S 13 20 7 11 1017.4 1016.8 6.8
23/12:00am 7.9 4.8 7.1 95 0.4 S 13 19 7 10 1017.3 1016.7 6.8
 
Date/Time
WST
Temp
°C
App
Temp
°C
Dew
Point
°C
Rel
Hum
%
Delta-T
°C
Wind Press
QNH
hPa
Press
MSL
hPa
Rain since
9am
mm
Dir  Spd
km/h
Gust
km/h
Spd
kts
Gust
kts
22/11:30pm 8.1 4.6 7.3 95 0.4 S 15 19 8 10 1017.2 1016.6 6.8
22/11:00pm 8.0 4.2 7.4 96 0.3 S 17 22 9 12 1017.2 1016.6 6.8
22/10:30pm 8.1 4.0 7.7 97 0.2 S 19 22 10 12 1017.2 1016.6 6.8
22/10:00pm 8.0 3.7 7.7 98 0.1 S 20 30 11 16 1017.5 1016.9 6.8
22/09:30pm 8.3 2.3 7.2 93 0.5 S 28 39 15 21 1017.5 1016.9 6.6
22/09:00pm 8.5 3.8 7.6 94 0.4 SSW 22 32 12 17 1017.4 1016.8 6.6
22/08:30pm 8.6 4.3 8.0 96 0.3 SSW 20 30 11 16 1017.2 1016.6 6.6
22/08:00pm 8.7 4.4 7.8 94 0.4 SSW 20 30 11 16 1016.9 1016.3 6.6
22/07:30pm 8.2 4.9 7.9 98 0.1 S 15 19 8 10 1016.5 1015.9 6.4
22/07:00pm 8.1 5.1 7.8 98 0.1 S 13 19 7 10 1016.1 1015.5 6.4
22/06:30pm 8.6 4.3 8.0 96 0.3 S 20 26 11 14 1015.6 1015.0 6.4
22/06:00pm 8.7 4.7 8.4 98 0.1 SSW 19 24 10 13 1015.0 1014.4 6.4
22/05:30pm 9.0 6.2 8.7 98 0.1 WSW 13 19 7 10 1014.5 1013.9 6.4
22/05:00pm 8.9 7.2 8.5 97 0.2 WSW 7 13 4 7 1014.2 1013.5 5.4
22/04:30pm 8.9 6.0 8.1 95 0.4 WSW 13 17 7 9 1013.9 1013.3 4.0
22/04:00pm 9.0 6.3 7.3 89 0.8 SSW 11 15 6 8 1013.8 1013.2 4.0
22/03:30pm 9.5 7.4 8.3 92 0.6 SSW 9 9 5 5 1013.4 1012.8 4.0
22/03:00pm 10.1 7.2 8.2 88 0.9 SSW 13 17 7 9 1013.4 1012.8 3.4
22/02:30pm 9.6 7.6 7.0 84 1.3 SSW 7 11 4 6 1013.4 1012.8 3.2
22/02:00pm 9.4 7.6 7.8 90 0.8 SSW 7 9 4 5 1013.5 1012.9 3.2
22/01:30pm 9.3 6.7 7.9 91 0.7 SSW 11 13 6 7 1013.5 1012.9 2.8
22/01:00pm 9.5 7.6 6.9 84 1.3 SSW 6 7 3 4 1013.7 1013.1 2.6
22/12:30pm 9.4 7.0 6.8 84 1.2 SSW 9 13 5 7 1014.0 1013.4 2.4
22/12:00pm 9.5 7.6 7.6 88 0.9 SSW 7 9 4 5 1014.5 1013.9 2.4
22/11:30am 8.8 7.0 7.1 89 0.8 SSW 6 9 3 5 1014.9 1014.3 2.2
22/11:00am 8.5 6.1 7.0 90 0.7 SSW 9 13 5 7 1015.2 1014.6 1.4
22/10:30am 8.8 5.5 6.6 86 1.0 SSW 13 17 7 9 1015.4 1014.8 0.6
22/10:00am 10.1 5.7 4.9 70 2.4 SSW 17 20 9 11 1015.1 1014.5 0.0
22/09:30am 9.6 5.9 4.2 69 2.5 SSW 13 20 7 11 1015.1 1014.5 0.0
22/09:00am 9.5 4.5 3.5 66 2.7 SW 19 24 10 13 1014.7 1014.1 0.0
22/08:30am 9.7 4.9 2.6 61 3.1 WSW 17 24 9 13 1014.7 1014.1 0.0
22/08:00am 9.0 5.3 2.6 64 2.8 WSW 11 17 6 9 1014.4 1013.8 0.0
22/07:30am 8.2 4.4 -0.5 54 3.5 WSW 9 11 5 6 1013.8 1013.2 0.0
22/07:00am 6.7 3.3 -0.7 59 2.9 WSW 7 9 4 5 1013.4 1012.8 0.0
22/06:30am 5.1 1.3 -1.1 64 2.4 WSW 9 13 5 7 1013.1 1012.5 0.0
22/06:00am 5.6 1.7 -1.5 60 2.7 WSW 9 11 5 6 1012.7 1012.1 0.0
22/05:30am 6.7 1.7 -1.4 56 3.1 SW 15 22 8 12 1012.3 1011.6 0.0
22/05:00am 5.2 2.6 -1.7 61 2.6 SSW 2 7 1 4 1012.0 1011.3 0.0
22/04:30am 6.0 1.7 -1.6 58 2.9 SSW 11 13 6 7 1011.7 1011.1 0.0
22/04:00am 6.1 1.4 -1.8 57 3.0 SSW 13 15 7 8 1011.8 1011.2 0.0
22/03:30am 7.3 3.0 -1.9 52 3.5 SSW 11 11 6 6 1011.8 1011.2 0.0
22/03:00am 8.8 3.7 -2.2 46 4.3 SSW 15 17 8 9 1012.1 1011.4 0.0
22/02:30am 8.1 3.5 -1.4 51 3.7 SSW 13 15 7 8 1012.3 1011.6 0.0
22/02:00am 6.9 2.2 -1.5 55 3.2 SSW 13 15 7 8 1012.7 1012.1 0.0
22/01:30am 7.1 2.1 -1.3 55 3.3 SSW 15 17 8 9 1013.1 1012.5 0.0
22/01:00am 7.1 2.5 -1.3 55 3.3 SSW 13 15 7 8 1013.4 1012.8 0.0
22/12:30am 7.7 3.4 -1.3 53 3.5 SSW 11 11 6 6 1013.9 1013.3 0.0
22/12:00am 8.0 3.4 -1.0 53 3.6 SW 13 13 7 7 1014.3 1013.6 0.0
 
Date/Time
WST
Temp
°C
App
Temp
°C
Dew
Point
°C
Rel
Hum
%
Delta-T
°C
Wind Press
QNH
hPa
Press
MSL
hPa
Rain since
9am
mm
Dir  Spd
km/h
Gust
km/h
Spd
kts
Gust
kts
21/11:30pm 8.4 4.6 -1.1 51 3.8 SW 9 11 5 6 1014.6 1014.0 0.0
21/11:00pm 8.8 3.8 -1.0 50 3.9 SW 15 15 8 8 1014.9 1014.3 0.0
21/10:30pm 8.3 4.1 -1.2 51 3.8 SW 11 13 6 7 1015.2 1014.6 0.0
21/10:00pm 9.2 4.6 -0.9 49 4.1 SW 13 15 7 8 1015.3 1014.7 0.0
21/09:30pm 9.2 4.6 -0.7 50 4.0 SW 13 13 7 7 1015.4 1014.8 0.0
21/09:00pm 9.2 5.4 -0.9 49 4.1 SW 9 11 5 6 1015.8 1015.2 0.0
21/08:30pm 10.5 7.7 -0.6 46 4.5 SW 4 9 2 5 1015.8 1015.2 0.0
21/08:00pm 11.3 7.5 -0.8 43 5.0 SW 9 11 5 6 1015.7 1015.1 0.0
21/07:30pm 11.4 7.9 -1.0 42 5.1 SW 7 7 4 4 1015.6 1015.0 0.0
21/07:00pm 12.6 9.2 -0.6 40 5.5 SW 7 9 4 5 1015.2 1014.6 0.0
21/06:30pm 14.0 10.6 -0.8 36 6.3 SW 7 9 4 5 1015.0 1014.4 0.0
21/06:00pm 15.2 11.8 -0.9 33 6.9 SW 7 9 4 5 1014.9 1014.3 0.0
21/05:30pm 16.4 11.8 -1.2 30 7.5 SW 13 19 7 10 1014.9 1014.3 0.0
21/05:00pm 16.9 13.0 -1.2 29 7.8 SW 9 13 5 7 1014.8 1014.2 0.0

Other Formats:

Comma delimited format used in spreadsheet applications
http://www.bom.gov.au/fwo/IDW60801/IDW60801.94449.axf

JavaScript Object Notation format (JSON) in row-major order
http://www.bom.gov.au/fwo/IDW60801/IDW60801.94449.json